createdAt,value
2022-08-04T00:14:03.652Z,8977.53027
2022-08-04T00:29:06.121Z,9325.06543
2022-08-04T00:44:08.350Z,9252.3252
2022-08-04T00:59:10.561Z,8744.04492
2022-08-04T01:14:12.986Z,8253.72461
2022-08-04T01:29:16.047Z,8119.021
2022-08-04T01:44:18.433Z,5480.63135
2022-08-04T01:59:20.643Z,1405.40515
2022-08-04T02:14:22.930Z,956.39392
2022-08-04T02:29:27.316Z,738.1745
2022-08-04T02:44:32.779Z,482.23807
2022-08-04T02:59:35.033Z,273.89685
2022-08-04T03:14:37.258Z,115.8449
2022-08-04T03:29:39.456Z,37.71695
2022-08-04T03:44:41.657Z,6.28616
2022-08-04T03:59:48.854Z,0
2022-08-04T04:14:51.459Z,0
2022-08-04T04:29:53.668Z,0
2022-08-04T04:44:55.955Z,0
2022-08-04T04:59:58.128Z,0
2022-08-04T05:15:00.329Z,0
2022-08-04T05:30:02.583Z,0
2022-08-04T05:45:04.826Z,0
2022-08-04T06:00:19.876Z,0
2022-08-04T06:15:46.130Z,0
2022-08-04T06:30:48.727Z,0
2022-08-04T06:45:50.969Z,0
2022-08-04T07:00:53.161Z,0
2022-08-04T07:15:55.375Z,0
2022-08-04T07:30:57.604Z,0
2022-08-04T07:45:59.835Z,0
2022-08-04T08:01:02.071Z,0
2022-08-04T08:16:05.227Z,0
2022-08-04T08:31:07.455Z,0
2022-08-04T08:46:09.631Z,0
2022-08-04T09:01:11.974Z,0
2022-08-04T09:16:14.432Z,0
2022-08-04T09:31:16.813Z,0
2022-08-04T09:46:19.082Z,0
2022-08-04T10:01:23.590Z,0
2022-08-04T10:16:26.307Z,0
2022-08-04T10:31:28.596Z,0
2022-08-04T10:46:30.957Z,0
2022-08-04T11:02:01.826Z,0
2022-08-04T11:17:05.605Z,0
2022-08-04T11:32:07.778Z,0
2022-08-04T11:47:09.966Z,0
2022-08-04T12:02:12.234Z,0.89802
2022-08-04T12:17:14.573Z,2.69407
2022-08-04T12:32:18.310Z,105.06863
2022-08-04T12:47:27.588Z,19.75649
2022-08-04T13:02:39.229Z,47.59519
2022-08-04T13:17:41.475Z,70.04575
2022-08-04T13:32:43.765Z,140.98953
2022-08-04T13:47:45.963Z,165.23613
2022-08-04T14:02:48.199Z,184.0946
2022-08-04T14:17:50.581Z,237.97595
2022-08-04T14:32:52.974Z,339.45248
2022-08-04T14:47:58.791Z,576.53046
2022-08-04T15:03:01.016Z,825.28265
2022-08-04T15:18:03.185Z,897.12445
2022-08-04T15:33:05.357Z,1188.08374
2022-08-04T15:48:07.550Z,1804.1272
2022-08-04T16:03:09.775Z,2458.78564
2022-08-04T16:18:25.592Z,3015.55957
2022-08-04T16:33:28.296Z,4651.75635
2022-08-04T16:48:46.607Z,4029.42676
2022-08-04T17:03:56.084Z,4201.84717
2022-08-04T17:19:00.154Z,4344.63281
2022-08-04T17:34:02.358Z,3178.99951
2022-08-04T17:49:04.742Z,2308.81567
2022-08-04T18:04:06.915Z,3080.21704
2022-08-04T18:19:09.930Z,5288.4541
2022-08-04T18:34:20.509Z,2750.64282
2022-08-04T18:50:58.737Z,2802.72803
2022-08-04T19:06:12.385Z,5358.5
2022-08-04T19:21:14.741Z,2282.77319
2022-08-04T19:36:17.267Z,2351.9209
2022-08-04T19:51:19.708Z,5449.2002
2022-08-04T20:06:24.789Z,2229.78979
2022-08-04T20:21:54.016Z,3417.87354
2022-08-04T20:36:58.814Z,5293.84229
2022-08-04T20:52:04.885Z,5465.36475
2022-08-04T21:07:10.937Z,5198.65186
2022-08-04T21:22:29.778Z,2572.83447
2022-08-04T21:37:56.688Z,2424.66064
2022-08-04T21:53:01.016Z,1913.68591
2022-08-04T22:08:03.362Z,6025.73096
2022-08-04T22:23:06.389Z,2481.23608
2022-08-04T22:38:27.857Z,1585.90771
2022-08-04T22:53:39.713Z,1513.16785
2022-08-04T23:08:43.290Z,983.33459
2022-08-04T23:24:00.701Z,1486.22717
2022-08-04T23:39:05.541Z,1305.72473
2022-08-04T23:54:08.139Z,7093.47949
